sensor_id;sensor_type;location;lat;lon;timestamp;pressure;altitude;pressure_sealevel;temperature;humidity
1724;BME280;7460;52.738;6.282;2022-10-15T00:02:16;99107.78;;;14.40;100.00
1724;BME280;7460;52.738;6.282;2022-10-15T00:04:49;99098.97;;;14.44;100.00
1724;BME280;7460;52.738;6.282;2022-10-15T00:07:22;99079.31;;;14.42;100.00
1724;BME280;7460;52.738;6.282;2022-10-15T00:09:55;99076.38;;;14.37;100.00
1724;BME280;7460;52.738;6.282;2022-10-15T00:12:28;99080.53;;;14.40;100.00
1724;BME280;7460;52.738;6.282;2022-10-15T00:15:03;99079.38;;;14.29;100.00
1724;BME280;7460;52.738;6.282;2022-10-15T00:17:37;99074.09;;;14.34;100.00
1724;BME280;7460;52.738;6.282;2022-10-15T00:20:10;99076.38;;;14.37;100.00
1724;BME280;7460;52.738;6.282;2022-10-15T00:22:43;99074.06;;;14.41;100.00
1724;BME280;7460;52.738;6.282;2022-10-15T00:25:16;99091.00;;;14.50;100.00
1724;BME280;7460;52.738;6.282;2022-10-15T00:27:49;99100.97;;;14.56;100.00
1724;BME280;7460;52.738;6.282;2022-10-15T00:30:23;99097.06;;;14.52;100.00
1724;BME280;7460;52.738;6.282;2022-10-15T00:32:56;99084.06;;;14.54;100.00
1724;BME280;7460;52.738;6.282;2022-10-15T00:35:28;99077.81;;;14.47;100.00
1724;BME280;7460;52.738;6.282;2022-10-15T00:38:01;99074.25;;;14.46;100.00
1724;BME280;7460;52.738;6.282;2022-10-15T00:40:34;99076.75;;;14.48;100.00
1724;BME280;7460;52.738;6.282;2022-10-15T00:43:08;99077.16;;;14.51;100.00
1724;BME280;7460;52.738;6.282;2022-10-15T00:45:42;99059.81;;;14.46;100.00
1724;BME280;7460;52.738;6.282;2022-10-15T00:48:15;99062.34;;;14.40;100.00
1724;BME280;7460;52.738;6.282;2022-10-15T00:50:48;99064.19;;;14.47;100.00
1724;BME280;7460;52.738;6.282;2022-10-15T00:53:21;99046.19;;;14.39;100.00
1724;BME280;7460;52.738;6.282;2022-10-15T00:55:54;99043.56;;;14.32;100.00
1724;BME280;7460;52.738;6.282;2022-10-15T00:58:30;99032.28;;;14.29;100.00
1724;BME280;7460;52.738;6.282;2022-10-15T01:01:05;99021.66;;;14.21;100.00
1724;BME280;7460;52.738;6.282;2022-10-15T01:03:38;99021.78;;;14.32;100.00
1724;BME280;7460;52.738;6.282;2022-10-15T01:06:11;99017.31;;;14.38;100.00
1724;BME280;7460;52.738;6.282;2022-10-15T01:08:44;99015.03;;;14.35;100.00
1724;BME280;7460;52.738;6.282;2022-10-15T01:11:28;99006.84;;;14.35;100.00
1724;BME280;7460;52.738;6.282;2022-10-15T01:14:14;98998.88;;;14.40;100.00
1724;BME280;7460;52.738;6.282;2022-10-15T01:16:56;98994.91;;;14.42;100.00
1724;BME280;7460;52.738;6.282;2022-10-15T01:19:49;98989.63;;;14.48;100.00
1724;BME280;7460;52.738;6.282;2022-10-15T01:22:43;98980.69;;;14.40;100.00
1724;BME280;7460;52.738;6.282;2022-10-15T01:25:29;98984.47;;;14.58;100.00
1724;BME280;7460;52.738;6.282;2022-10-15T01:28:18;98977.59;;;14.55;100.00
1724;BME280;7460;52.738;6.282;2022-10-15T01:30:59;98961.03;;;14.57;100.00
1724;BME280;7460;52.738;6.282;2022-10-15T01:33:36;98944.69;;;14.57;100.00
1724;BME280;7460;52.738;6.282;2022-10-15T01:36:16;98942.56;;;14.59;100.00
1724;BME280;7460;52.738;6.282;2022-10-15T01:38:55;98932.91;;;14.63;100.00
1724;BME280;7460;52.738;6.282;2022-10-15T01:41:35;98922.84;;;14.63;100.00
1724;BME280;7460;52.738;6.282;2022-10-15T01:44:14;98917.16;;;14.65;100.00
1724;BME280;7460;52.738;6.282;2022-10-15T01:46:53;98917.25;;;14.76;100.00
1724;BME280;7460;52.738;6.282;2022-10-15T01:49:32;98895.53;;;14.70;100.00
1724;BME280;7460;52.738;6.282;2022-10-15T01:52:09;98889.25;;;14.88;100.00
1724;BME280;7460;52.738;6.282;2022-10-15T01:54:45;98887.59;;;14.87;100.00
1724;BME280;7460;52.738;6.282;2022-10-15T01:57:19;98897.03;;;14.84;100.00
1724;BME280;7460;52.738;6.282;2022-10-15T01:59:54;98900.00;;;14.83;100.00
1724;BME280;7460;52.738;6.282;2022-10-15T02:02:29;98907.09;;;14.84;100.00
1724;BME280;7460;52.738;6.282;2022-10-15T02:05:04;98905.06;;;14.79;100.00
1724;BME280;7460;52.738;6.282;2022-10-15T02:07:44;98892.19;;;14.86;100.00
1724;BME280;7460;52.738;6.282;2022-10-15T02:10:26;98888.19;;;14.89;100.00
1724;BME280;7460;52.738;6.282;2022-10-15T02:13:05;98890.84;;;14.95;100.00
1724;BME280;7460;52.738;6.282;2022-10-15T02:15:44;98870.00;;;15.01;100.00
1724;BME280;7460;52.738;6.282;2022-10-15T02:18:24;98867.56;;;15.11;100.00
1724;BME280;7460;52.738;6.282;2022-10-15T02:21:05;98875.22;;;15.02;100.00
1724;BME280;7460;52.738;6.282;2022-10-15T02:23:45;98862.94;;;15.11;100.00
1724;BME280;7460;52.738;6.282;2022-10-15T02:26:20;98860.16;;;15.00;100.00
1724;BME280;7460;52.738;6.282;2022-10-15T02:28:58;98854.78;;;15.23;100.00
1724;BME280;7460;52.738;6.282;2022-10-15T02:31:34;98851.84;;;15.25;100.00
1724;BME280;7460;52.738;6.282;2022-10-15T02:34:14;98853.03;;;15.17;100.00
1724;BME280;7460;52.738;6.282;2022-10-15T02:36:48;98848.50;;;15.23;100.00
1724;BME280;7460;52.738;6.282;2022-10-15T02:39:23;98856.31;;;15.19;100.00
1724;BME280;7460;52.738;6.282;2022-10-15T02:41:56;98845.59;;;15.06;100.00
1724;BME280;7460;52.738;6.282;2022-10-15T02:44:29;98837.00;;;15.21;100.00
1724;BME280;7460;52.738;6.282;2022-10-15T02:47:02;98831.22;;;15.29;100.00
1724;BME280;7460;52.738;6.282;2022-10-15T02:49:37;98818.34;;;15.36;100.00
1724;BME280;7460;52.738;6.282;2022-10-15T02:52:10;98806.59;;;15.35;100.00
1724;BME280;7460;52.738;6.282;2022-10-15T02:54:43;98783.13;;;15.34;100.00
1724;BME280;7460;52.738;6.282;2022-10-15T02:57:16;98783.34;;;15.33;100.00
1724;BME280;7460;52.738;6.282;2022-10-15T02:59:48;98785.50;;;15.31;100.00
1724;BME280;7460;52.738;6.282;2022-10-15T03:02:21;98798.75;;;15.39;100.00
1724;BME280;7460;52.738;6.282;2022-10-15T03:04:55;98790.84;;;15.37;100.00
1724;BME280;7460;52.738;6.282;2022-10-15T03:07:28;98782.41;;;15.39;100.00
1724;BME280;7460;52.738;6.282;2022-10-15T03:10:01;98784.94;;;15.52;100.00
1724;BME280;7460;52.738;6.282;2022-10-15T03:12:34;98773.78;;;15.54;100.00
1724;BME280;7460;52.738;6.282;2022-10-15T03:15:08;98764.53;;;15.55;100.00
1724;BME280;7460;52.738;6.282;2022-10-15T03:17:40;98750.19;;;15.47;100.00
1724;BME280;7460;52.738;6.282;2022-10-15T03:20:15;98737.59;;;15.46;100.00
1724;BME280;7460;52.738;6.282;2022-10-15T03:22:48;98734.06;;;15.46;100.00
1724;BME280;7460;52.738;6.282;2022-10-15T03:25:20;98733.81;;;15.47;100.00
1724;BME280;7460;52.738;6.282;2022-10-15T03:27:53;98727.16;;;15.43;100.00
1724;BME280;7460;52.738;6.282;2022-10-15T03:30:26;98728.22;;;15.31;100.00
1724;BME280;7460;52.738;6.282;2022-10-15T03:32:59;98728.00;;;15.44;100.00
1724;BME280;7460;52.738;6.282;2022-10-15T03:35:33;98729.06;;;15.43;100.00
1724;BME280;7460;52.738;6.282;2022-10-15T03:38:06;98742.09;;;15.29;100.00
1724;BME280;7460;52.738;6.282;2022-10-15T03:40:40;98730.50;;;15.34;100.00
1724;BME280;7460;52.738;6.282;2022-10-15T03:43:12;98719.56;;;15.22;100.00
1724;BME280;7460;52.738;6.282;2022-10-15T03:45:45;98728.69;;;15.28;100.00
1724;BME280;7460;52.738;6.282;2022-10-15T03:48:18;98725.16;;;15.27;100.00
1724;BME280;7460;52.738;6.282;2022-10-15T03:50:53;98713.06;;;15.35;100.00
1724;BME280;7460;52.738;6.282;2022-10-15T03:53:25;98710.94;;;15.37;100.00
1724;BME280;7460;52.738;6.282;2022-10-15T03:56:02;98702.75;;;15.37;100.00
1724;BME280;7460;52.738;6.282;2022-10-15T03:58:35;98700.97;;;15.54;100.00
1724;BME280;7460;52.738;6.282;2022-10-15T04:01:08;98691.28;;;15.58;100.00
1724;BME280;7460;52.738;6.282;2022-10-15T04:03:42;98694.94;;;15.52;100.00
1724;BME280;7460;52.738;6.282;2022-10-15T04:06:16;98690.19;;;15.59;100.00
1724;BME280;7460;52.738;6.282;2022-10-15T04:08:49;98684.16;;;15.34;100.00
1724;BME280;7460;52.738;6.282;2022-10-15T04:11:22;98685.81;;;15.35;100.00
1724;BME280;7460;52.738;6.282;2022-10-15T04:13:55;98683.31;;;15.45;100.00
1724;BME280;7460;52.738;6.282;2022-10-15T04:16:28;98667.91;;;15.51;100.00
1724;BME280;7460;52.738;6.282;2022-10-15T04:19:01;98664.09;;;15.52;100.00
1724;BME280;7460;52.738;6.282;2022-10-15T04:21:42;98666.81;;;15.40;100.00
1724;BME280;7460;52.738;6.282;2022-10-15T04:24:14;98665.53;;;15.42;100.00
1724;BME280;7460;52.738;6.282;2022-10-15T04:26:47;98662.19;;;15.40;100.00
1724;BME280;7460;52.738;6.282;2022-10-15T04:29:20;98661.97;;;15.54;100.00
1724;BME280;7460;52.738;6.282;2022-10-15T04:31:53;98652.00;;;15.59;100.00
1724;BME280;7460;52.738;6.282;2022-10-15T04:34:26;98652.97;;;15.53;100.00
1724;BME280;7460;52.738;6.282;2022-10-15T04:37:00;98668.38;;;15.47;100.00
1724;BME280;7460;52.738;6.282;2022-10-15T04:39:33;98652.38;;;15.28;100.00
1724;BME280;7460;52.738;6.282;2022-10-15T04:42:06;98662.69;;;15.37;100.00
1724;BME280;7460;52.738;6.282;2022-10-15T04:44:39;98658.41;;;15.30;100.00
1724;BME280;7460;52.738;6.282;2022-10-15T04:47:11;98661.38;;;15.40;100.00
1724;BME280;7460;52.738;6.282;2022-10-15T04:49:44;98659.69;;;15.39;100.00
1724;BME280;7460;52.738;6.282;2022-10-15T04:52:18;98667.41;;;15.42;100.00
1724;BME280;7460;52.738;6.282;2022-10-15T04:54:51;98648.72;;;15.34;100.00
1724;BME280;7460;52.738;6.282;2022-10-15T04:57:24;98658.19;;;15.31;100.00
1724;BME280;7460;52.738;6.282;2022-10-15T04:59:58;98663.75;;;15.25;100.00
1724;BME280;7460;52.738;6.282;2022-10-15T05:02:31;98661.38;;;15.17;100.00
1724;BME280;7460;52.738;6.282;2022-10-15T05:05:05;98654.28;;;15.16;100.00
1724;BME280;7460;52.738;6.282;2022-10-15T05:07:39;98651.41;;;15.10;100.00
1724;BME280;7460;52.738;6.282;2022-10-15T05:10:12;98654.50;;;15.26;100.00
1724;BME280;7460;52.738;6.282;2022-10-15T05:12:45;98647.97;;;15.03;100.00
1724;BME280;7460;52.738;6.282;2022-10-15T05:15:21;98640.75;;;15.09;100.00
1724;BME280;7460;52.738;6.282;2022-10-15T05:17:54;98645.38;;;15.20;100.00
1724;BME280;7460;52.738;6.282;2022-10-15T05:20:27;98643.47;;;15.21;100.00
1724;BME280;7460;52.738;6.282;2022-10-15T05:23:01;98641.72;;;15.15;100.00
1724;BME280;7460;52.738;6.282;2022-10-15T05:25:36;98642.19;;;15.11;100.00
1724;BME280;7460;52.738;6.282;2022-10-15T05:28:09;98641.72;;;15.15;100.00
1724;BME280;7460;52.738;6.282;2022-10-15T05:30:42;98638.25;;;15.07;100.00
1724;BME280;7460;52.738;6.282;2022-10-15T05:33:15;98636.25;;;15.03;100.00
1724;BME280;7460;52.738;6.282;2022-10-15T05:35:47;98632.09;;;15.00;100.00
1724;BME280;7460;52.738;6.282;2022-10-15T05:38:22;98629.00;;;14.97;100.00
1724;BME280;7460;52.738;6.282;2022-10-15T05:40:54;98629.25;;;14.95;100.00
1724;BME280;7460;52.738;6.282;2022-10-15T05:43:28;98633.88;;;14.95;100.00
1724;BME280;7460;52.738;6.282;2022-10-15T05:46:01;98630.75;;;14.79;100.00
1724;BME280;7460;52.738;6.282;2022-10-15T05:48:33;98640.59;;;14.81;100.00
1724;BME280;7460;52.738;6.282;2022-10-15T05:51:09;98644.50;;;14.73;100.00
1724;BME280;7460;52.738;6.282;2022-10-15T05:53:44;98629.81;;;14.74;100.00
1724;BME280;7460;52.738;6.282;2022-10-15T05:56:17;98637.25;;;14.67;100.00
1724;BME280;7460;52.738;6.282;2022-10-15T05:58:50;98633.94;;;14.76;100.00
1724;BME280;7460;52.738;6.282;2022-10-15T06:01:23;98624.84;;;14.71;100.00
1724;BME280;7460;52.738;6.282;2022-10-15T06:03:56;98623.63;;;14.67;100.00
1724;BME280;7460;52.738;6.282;2022-10-15T06:06:29;98619.38;;;14.71;100.00
1724;BME280;7460;52.738;6.282;2022-10-15T06:09:03;98614.63;;;14.66;100.00
1724;BME280;7460;52.738;6.282;2022-10-15T06:11:36;98628.13;;;14.61;100.00
1724;BME280;7460;52.738;6.282;2022-10-15T06:14:09;98615.56;;;14.60;100.00
1724;BME280;7460;52.738;6.282;2022-10-15T06:16:42;98608.97;;;14.68;100.00
1724;BME280;7460;52.738;6.282;2022-10-15T06:19:15;98613.56;;;14.67;100.00
1724;BME280;7460;52.738;6.282;2022-10-15T06:21:47;98617.13;;;14.68;100.00
1724;BME280;7460;52.738;6.282;2022-10-15T06:24:21;98607.19;;;14.73;100.00
1724;BME280;7460;52.738;6.282;2022-10-15T06:26:54;98608.69;;;14.58;100.00
1724;BME280;7460;52.738;6.282;2022-10-15T06:29:27;98609.44;;;14.76;100.00
1724;BME280;7460;52.738;6.282;2022-10-15T06:32:00;98609.19;;;14.66;100.00
1724;BME280;7460;52.738;6.282;2022-10-15T06:34:33;98612.28;;;14.70;100.00
1724;BME280;7460;52.738;6.282;2022-10-15T06:37:06;98618.06;;;14.62;100.00
1724;BME280;7460;52.738;6.282;2022-10-15T06:39:40;98617.34;;;14.36;100.00
1724;BME280;7460;52.738;6.282;2022-10-15T06:42:13;98629.50;;;14.22;100.00
1724;BME280;7460;52.738;6.282;2022-10-15T06:44:45;98633.81;;;14.30;100.00
1724;BME280;7460;52.738;6.282;2022-10-15T06:47:18;98646.06;;;14.21;100.00
1724;BME280;7460;52.738;6.282;2022-10-15T06:49:52;98632.91;;;14.18;100.00
1724;BME280;7460;52.738;6.282;2022-10-15T06:52:24;98621.53;;;14.09;100.00
1724;BME280;7460;52.738;6.282;2022-10-15T06:54:59;98580.66;;;14.27;100.00
1724;BME280;7460;52.738;6.282;2022-10-15T06:57:32;98551.41;;;14.11;100.00
1724;BME280;7460;52.738;6.282;2022-10-15T07:00:06;98576.00;;;14.16;100.00
1724;BME280;7460;52.738;6.282;2022-10-15T07:02:39;98591.09;;;14.30;100.00
1724;BME280;7460;52.738;6.282;2022-10-15T07:05:12;98585.44;;;14.14;100.00
1724;BME280;7460;52.738;6.282;2022-10-15T07:07:50;98590.16;;;14.06;100.00
1724;BME280;7460;52.738;6.282;2022-10-15T07:10:25;98604.31;;;13.97;100.00
1724;BME280;7460;52.738;6.282;2022-10-15T07:13:01;98602.56;;;14.02;100.00
1724;BME280;7460;52.738;6.282;2022-10-15T07:15:34;98605.25;;;14.21;100.00
1724;BME280;7460;52.738;6.282;2022-10-15T07:18:07;98604.66;;;13.89;100.00
1724;BME280;7460;52.738;6.282;2022-10-15T07:20:40;98605.09;;;14.16;100.00
1724;BME280;7460;52.738;6.282;2022-10-15T07:23:13;98605.53;;;14.01;100.00
1724;BME280;7460;52.738;6.282;2022-10-15T07:25:47;98595.44;;;13.90;100.00
1724;BME280;7460;52.738;6.282;2022-10-15T07:28:20;98600.94;;;13.83;100.00
1724;BME280;7460;52.738;6.282;2022-10-15T07:30:52;98602.97;;;13.88;100.00
1724;BME280;7460;52.738;6.282;2022-10-15T07:33:25;98600.31;;;13.99;100.00
1724;BME280;7460;52.738;6.282;2022-10-15T07:36:01;98598.28;;;13.95;100.00
1724;BME280;7460;52.738;6.282;2022-10-15T07:38:35;98606.38;;;13.83;100.00
1724;BME280;7460;52.738;6.282;2022-10-15T07:41:09;98617.16;;;14.08;100.00
1724;BME280;7460;52.738;6.282;2022-10-15T07:43:43;98627.59;;;14.11;100.00
1724;BME280;7460;52.738;6.282;2022-10-15T07:46:15;98632.72;;;14.01;100.00
1724;BME280;7460;52.738;6.282;2022-10-15T07:48:48;98630.75;;;14.08;100.00
1724;BME280;7460;52.738;6.282;2022-10-15T07:51:21;98629.09;;;14.07;100.00
1724;BME280;7460;52.738;6.282;2022-10-15T07:53:54;98637.66;;;14.22;100.00
1724;BME280;7460;52.738;6.282;2022-10-15T07:56:28;98632.16;;;14.29;100.00
1724;BME280;7460;52.738;6.282;2022-10-15T07:59:01;98630.84;;;14.31;100.00
1724;BME280;7460;52.738;6.282;2022-10-15T08:01:34;98634.72;;;14.24;100.00
1724;BME280;7460;52.738;6.282;2022-10-15T08:04:07;98645.38;;;14.25;100.00
1724;BME280;7460;52.738;6.282;2022-10-15T08:06:39;98642.91;;;14.35;100.00
1724;BME280;7460;52.738;6.282;2022-10-15T08:09:12;98631.47;;;14.33;100.00
1724;BME280;7460;52.738;6.282;2022-10-15T08:11:46;98645.97;;;14.27;100.00
1724;BME280;7460;52.738;6.282;2022-10-15T08:14:19;98641.72;;;14.50;100.00
1724;BME280;7460;52.738;6.282;2022-10-15T08:16:52;98639.59;;;14.52;100.00
1724;BME280;7460;52.738;6.282;2022-10-15T08:19:25;98641.66;;;14.68;100.00
1724;BME280;7460;52.738;6.282;2022-10-15T08:21:58;98648.16;;;14.67;100.00
1724;BME280;7460;52.738;6.282;2022-10-15T08:24:30;98656.25;;;14.97;100.00
1724;BME280;7460;52.738;6.282;2022-10-15T08:27:05;98664.47;;;15.32;100.00
1724;BME280;7460;52.738;6.282;2022-10-15T08:29:37;98663.44;;;15.56;100.00
1724;BME280;7460;52.738;6.282;2022-10-15T08:32:11;98662.81;;;15.77;100.00
1724;BME280;7460;52.738;6.282;2022-10-15T08:34:45;98657.34;;;15.54;100.00
1724;BME280;7460;52.738;6.282;2022-10-15T08:37:17;98665.78;;;15.29;100.00
1724;BME280;7460;52.738;6.282;2022-10-15T08:39:50;98672.28;;;15.28;100.00
1724;BME280;7460;52.738;6.282;2022-10-15T08:42:29;98666.34;;;14.96;100.00
1724;BME280;7460;52.738;6.282;2022-10-15T08:45:09;98667.97;;;14.97;100.00
1724;BME280;7460;52.738;6.282;2022-10-15T08:47:46;98663.97;;;15.11;100.00
1724;BME280;7460;52.738;6.282;2022-10-15T08:50:26;98678.31;;;15.07;100.00
1724;BME280;7460;52.738;6.282;2022-10-15T08:53:01;98668.09;;;15.02;100.00
1724;BME280;7460;52.738;6.282;2022-10-15T08:55:37;98680.34;;;15.35;100.00
1724;BME280;7460;52.738;6.282;2022-10-15T08:58:16;98679.44;;;16.16;100.00
1724;BME280;7460;52.738;6.282;2022-10-15T09:00:57;98684.13;;;16.89;100.00
1724;BME280;7460;52.738;6.282;2022-10-15T09:03:36;98687.56;;;16.68;100.00
1724;BME280;7460;52.738;6.282;2022-10-15T09:06:15;98697.50;;;16.74;100.00
1724;BME280;7460;52.738;6.282;2022-10-15T09:08:58;98717.25;;;17.09;100.00
1724;BME280;7460;52.738;6.282;2022-10-15T09:11:42;98719.25;;;17.31;100.00
1724;BME280;7460;52.738;6.282;2022-10-15T09:14:21;98730.09;;;17.26;100.00
1724;BME280;7460;52.738;6.282;2022-10-15T09:17:00;98733.84;;;17.53;100.00
1724;BME280;7460;52.738;6.282;2022-10-15T09:19:36;98738.72;;;18.01;100.00
1724;BME280;7460;52.738;6.282;2022-10-15T09:22:11;98738.00;;;18.11;100.00
1724;BME280;7460;52.738;6.282;2022-10-15T09:24:46;98746.75;;;18.08;100.00
1724;BME280;7460;52.738;6.282;2022-10-15T09:27:24;98746.72;;;17.69;100.00
1724;BME280;7460;52.738;6.282;2022-10-15T09:30:03;98758.03;;;17.95;100.00
1724;BME280;7460;52.738;6.282;2022-10-15T09:32:41;98754.72;;;17.93;100.00
1724;BME280;7460;52.738;6.282;2022-10-15T09:35:25;98763.78;;;17.60;100.00
1724;BME280;7460;52.738;6.282;2022-10-15T09:38:22;98770.38;;;17.13;100.00
1724;BME280;7460;52.738;6.282;2022-10-15T09:41:09;98766.09;;;16.89;100.00
1724;BME280;7460;52.738;6.282;2022-10-15T09:43:49;98760.06;;;16.87;100.00
1724;BME280;7460;52.738;6.282;2022-10-15T09:46:24;98762.16;;;16.97;100.00
1724;BME280;7460;52.738;6.282;2022-10-15T09:49:02;98776.16;;;17.00;100.00
1724;BME280;7460;52.738;6.282;2022-10-15T09:51:42;98777.53;;;16.86;100.00
1724;BME280;7460;52.738;6.282;2022-10-15T09:54:22;98782.94;;;16.98;100.00
1724;BME280;7460;52.738;6.282;2022-10-15T09:56:57;98778.56;;;16.97;100.00
1724;BME280;7460;52.738;6.282;2022-10-15T09:59:30;98769.75;;;17.23;100.00
1724;BME280;7460;52.738;6.282;2022-10-15T10:02:17;98771.41;;;17.24;100.00
1724;BME280;7460;52.738;6.282;2022-10-15T10:04:51;98773.81;;;17.37;100.00
1724;BME280;7460;52.738;6.282;2022-10-15T10:07:32;98773.47;;;17.34;100.00
1724;BME280;7460;52.738;6.282;2022-10-15T10:10:21;98774.09;;;17.07;100.00
1724;BME280;7460;52.738;6.282;2022-10-15T10:12:55;98774.50;;;16.71;100.00
1724;BME280;7460;52.738;6.282;2022-10-15T10:15:32;98771.69;;;16.94;100.00
1724;BME280;7460;52.738;6.282;2022-10-15T10:18:17;98777.66;;;17.08;100.00
1724;BME280;7460;52.738;6.282;2022-10-15T10:20:53;98786.31;;;17.16;100.00
1724;BME280;7460;52.738;6.282;2022-10-15T10:23:31;98769.91;;;17.16;100.00
1724;BME280;7460;52.738;6.282;2022-10-15T10:26:07;98760.03;;;17.32;100.00
1724;BME280;7460;52.738;6.282;2022-10-15T10:28:47;98761.38;;;17.63;100.00
1724;BME280;7460;52.738;6.282;2022-10-15T10:31:29;98761.88;;;17.60;100.00
1724;BME280;7460;52.738;6.282;2022-10-15T10:34:05;98759.06;;;17.22;100.00
1724;BME280;7460;52.738;6.282;2022-10-15T10:36:37;98754.50;;;17.44;100.00
1724;BME280;7460;52.738;6.282;2022-10-15T10:39:23;98762.47;;;17.45;100.00
1724;BME280;7460;52.738;6.282;2022-10-15T10:41:58;98768.00;;;17.50;100.00
1724;BME280;7460;52.738;6.282;2022-10-15T10:44:33;98766.56;;;17.14;100.00
1724;BME280;7460;52.738;6.282;2022-10-15T10:47:12;98764.44;;;17.16;100.00
1724;BME280;7460;52.738;6.282;2022-10-15T10:49:48;98775.88;;;17.97;100.00
1724;BME280;7460;52.738;6.282;2022-10-15T10:52:24;98775.97;;;18.63;100.00
1724;BME280;7460;52.738;6.282;2022-10-15T10:54:59;98761.75;;;18.66;98.50
1724;BME280;7460;52.738;6.282;2022-10-15T10:57:43;98768.16;;;18.33;98.40
1724;BME280;7460;52.738;6.282;2022-10-15T11:00:20;98770.38;;;18.14;99.09
1724;BME280;7460;52.738;6.282;2022-10-15T11:02:56;98775.88;;;17.97;100.00
1724;BME280;7460;52.738;6.282;2022-10-15T11:05:32;98771.97;;;17.93;100.00
1724;BME280;7460;52.738;6.282;2022-10-15T11:08:10;98774.97;;;17.58;98.67
1724;BME280;7460;52.738;6.282;2022-10-15T11:10:50;98776.03;;;17.91;98.45
1724;BME280;7460;52.738;6.282;2022-10-15T11:13:40;98770.88;;;18.11;99.03
1724;BME280;7460;52.738;6.282;2022-10-15T11:16:21;98770.38;;;18.36;99.56
1724;BME280;7460;52.738;6.282;2022-10-15T11:19:07;98768.84;;;18.23;98.80
1724;BME280;7460;52.738;6.282;2022-10-15T11:22:10;98763.13;;;17.86;100.00
1724;BME280;7460;52.738;6.282;2022-10-15T11:24:50;98754.66;;;17.88;100.00
1724;BME280;7460;52.738;6.282;2022-10-15T11:27:49;98752.09;;;17.81;100.00
1724;BME280;7460;52.738;6.282;2022-10-15T11:30:35;98756.97;;;17.96;100.00
1724;BME280;7460;52.738;6.282;2022-10-15T11:33:26;98757.66;;;17.69;100.00
1724;BME280;7460;52.738;6.282;2022-10-15T11:36:15;98740.31;;;17.13;100.00
1724;BME280;7460;52.738;6.282;2022-10-15T11:39:05;98741.88;;;17.09;100.00
1724;BME280;7460;52.738;6.282;2022-10-15T11:41:51;98751.34;;;16.73;100.00
1724;BME280;7460;52.738;6.282;2022-10-15T11:44:38;98749.72;;;16.89;100.00
1724;BME280;7460;52.738;6.282;2022-10-15T11:47:25;98761.53;;;17.23;100.00
1724;BME280;7460;52.738;6.282;2022-10-15T11:50:10;98761.59;;;17.11;100.00
1724;BME280;7460;52.738;6.282;2022-10-15T11:53:20;98761.94;;;17.15;100.00
1724;BME280;7460;52.738;6.282;2022-10-15T11:56:04;98769.66;;;17.35;100.00
1724;BME280;7460;52.738;6.282;2022-10-15T11:58:44;98755.97;;;17.35;100.00
1724;BME280;7460;52.738;6.282;2022-10-15T12:01:24;98770.41;;;17.64;100.00
1724;BME280;7460;52.738;6.282;2022-10-15T12:04:04;98758.13;;;17.33;100.00
1724;BME280;7460;52.738;6.282;2022-10-15T12:06:46;98758.91;;;17.62;100.00
1724;BME280;7460;52.738;6.282;2022-10-15T12:09:27;98746.44;;;17.54;100.00
1724;BME280;7460;52.738;6.282;2022-10-15T12:12:07;98744.66;;;17.43;99.87
1724;BME280;7460;52.738;6.282;2022-10-15T12:14:48;98746.69;;;17.52;100.00
1724;BME280;7460;52.738;6.282;2022-10-15T12:17:33;98747.69;;;17.30;100.00
1724;BME280;7460;52.738;6.282;2022-10-15T12:20:12;98743.38;;;17.50;100.00
1724;BME280;7460;52.738;6.282;2022-10-15T12:22:54;98738.22;;;17.88;97.39
1724;BME280;7460;52.738;6.282;2022-10-15T12:25:44;98725.63;;;18.25;95.36
1724;BME280;7460;52.738;6.282;2022-10-15T12:28:23;98717.41;;;18.25;92.92
1724;BME280;7460;52.738;6.282;2022-10-15T12:31:00;98714.06;;;18.23;90.44
1724;BME280;7460;52.738;6.282;2022-10-15T12:33:44;98712.16;;;18.45;88.09
1724;BME280;7460;52.738;6.282;2022-10-15T12:36:23;98703.75;;;18.30;89.46
1724;BME280;7460;52.738;6.282;2022-10-15T12:39:01;98703.13;;;18.23;87.30
1724;BME280;7460;52.738;6.282;2022-10-15T12:41:51;98704.81;;;18.29;90.83
1724;BME280;7460;52.738;6.282;2022-10-15T12:44:27;98722.81;;;18.64;91.30
1724;BME280;7460;52.738;6.282;2022-10-15T12:47:02;98720.28;;;18.84;93.01
1724;BME280;7460;52.738;6.282;2022-10-15T12:49:46;98727.81;;;18.72;92.22
1724;BME280;7460;52.738;6.282;2022-10-15T12:52:54;98734.44;;;18.76;91.16
1724;BME280;7460;52.738;6.282;2022-10-15T12:55:30;98757.00;;;18.39;93.78
1724;BME280;7460;52.738;6.282;2022-10-15T12:58:10;98753.59;;;17.22;93.37
1724;BME280;7460;52.738;6.282;2022-10-15T13:01:03;98743.53;;;16.54;98.81
1724;BME280;7460;52.738;6.282;2022-10-15T13:03:39;98756.81;;;16.62;100.00
1724;BME280;7460;52.738;6.282;2022-10-15T13:06:22;98761.09;;;16.58;100.00
1724;BME280;7460;52.738;6.282;2022-10-15T13:09:05;98766.84;;;16.84;100.00
1724;BME280;7460;52.738;6.282;2022-10-15T13:11:48;98763.25;;;16.44;100.00
1724;BME280;7460;52.738;6.282;2022-10-15T13:14:30;98742.00;;;15.82;100.00
1724;BME280;7460;52.738;6.282;2022-10-15T13:17:13;98740.47;;;15.63;100.00
1724;BME280;7460;52.738;6.282;2022-10-15T13:19:51;98730.53;;;15.57;100.00
1724;BME280;7460;52.738;6.282;2022-10-15T13:22:26;98720.25;;;15.18;100.00
1724;BME280;7460;52.738;6.282;2022-10-15T13:24:59;98715.16;;;15.09;100.00
1724;BME280;7460;52.738;6.282;2022-10-15T13:27:34;98718.06;;;15.38;100.00
1724;BME280;7460;52.738;6.282;2022-10-15T13:30:12;98707.50;;;15.65;100.00
1724;BME280;7460;52.738;6.282;2022-10-15T13:32:50;98710.94;;;15.37;100.00
1724;BME280;7460;52.738;6.282;2022-10-15T13:35:27;98705.59;;;15.30;100.00
1724;BME280;7460;52.738;6.282;2022-10-15T13:38:02;98713.44;;;15.62;100.00
1724;BME280;7460;52.738;6.282;2022-10-15T13:40:36;98703.66;;;16.01;100.00
1724;BME280;7460;52.738;6.282;2022-10-15T13:43:16;98698.19;;;16.12;100.00
1724;BME280;7460;52.738;6.282;2022-10-15T13:45:53;98700.09;;;16.12;100.00
1724;BME280;7460;52.738;6.282;2022-10-15T13:48:30;98694.91;;;16.39;100.00
1724;BME280;7460;52.738;6.282;2022-10-15T13:51:04;98685.41;;;16.70;100.00
1724;BME280;7460;52.738;6.282;2022-10-15T13:53:39;98685.38;;;16.98;100.00
1724;BME280;7460;52.738;6.282;2022-10-15T13:56:23;98695.16;;;17.11;100.00
1724;BME280;7460;52.738;6.282;2022-10-15T13:58:59;98688.34;;;17.30;100.00
1724;BME280;7460;52.738;6.282;2022-10-15T14:01:33;98683.44;;;17.49;100.00
1724;BME280;7460;52.738;6.282;2022-10-15T14:04:15;98673.59;;;17.65;100.00